ジュノー国際空港の過去48時間の天気

ジュノー国際空港 (Juneau, Juneau International Airport)

現在時刻: 9/28 00:21 AKDT (9/28 08:21 UTC) 以下の時間は現地時間です。

過去48時間のMETAR気象情報
時間 風向 風速(m/s) 視程 気温(℃) 湿度(%) 気圧(hPa) 天気現象
27 23:52 南東 5 10km以上 11.1 80 1006.3
27 22:53 南南東 4 6450m 11.7 80 1005.2
27 21:53 東南東 6 6450m 11.1 86 1003.6 雨 もや
27 20:53 4 4850m 11.1 89 1001.5 雨 もや
27 19:53 東南東 11 6450m 11.7 83 999.9 弱い雨
27 18:53 南東 8 6450m 11.1 89 998.8 雨 もや
27 17:53 南東 9 6450m 11.7 86 998.1 雨 もや
27 16:53 6 6450m 12.8 69 997.9 弱い雨
27 15:53 8 4850m 11.7 86 997.7 雨 もや
27 15:38 東南東 11 4850m 11.1 89 998 雨 もや
27 14:53 7 4850m 11.7 86 997.4
27 13:53 東南東 8 10km以上 10.6 89 998.8 弱い雨
27 12:53 東南東 10 10km以上 10.6 86 997.8 弱い雨
27 11:53 東南東 10 10km以上 9.4 86 997
27 10:53 東南東 10 10km以上 8.9 86 997.3 弱い雨
27 09:53 東南東 9 10km以上 8.9 83 998.1
27 08:53 南東 11 10km以上 8.9 83 999.8 弱い雨
27 07:53 東南東 8 10km以上 8.3 90 1001.9 弱い雨
27 06:53 東南東 8 10km以上 8.9 89 1003.9 弱い雨 もや
27 05:53 10 10km以上 9.4 83 1006.2 弱い雨
27 04:53 東南東 8 10km以上 10 83 1007.7 弱い雨
27 03:53 7 10km以上 10 83 1008.5
27 02:53 7 10km以上 10 86 1010.4 弱い雨
27 01:53 東南東 5 10km以上 10 86 1012 弱い雨
26 23:53 6 10km以上 10 86 1013.2
26 22:53 6 10km以上 10 86 1013.9 弱い雨
26 21:53 6 8050m 10 86 1014.1 弱い雨 もや
26 20:53 6 8050m 10 86 1013.8 弱い雨
26 19:53 東南東 4 10km以上 10 89 1014
26 18:53 5 10km以上 10 89 1013.7 弱い雨
26 17:53 東南東 6 8050m 10.6 86 1013.5 弱い雨 もや
26 16:53 南東 4 6450m 10.6 86 1012.6 弱い雨 もや
26 15:53 東南東 7 8050m 11.1 83 1012.1 弱い雨
26 14:53 東南東 9 10km以上 11.7 77 1010.9
26 13:53 南東 8 10km以上 11.7 80 1010.5
26 12:53 東南東 6 10km以上 11.1 83 1009.8
26 12:06 東南東 7 10km以上 11.1 86 1009
26 11:53 東南東 8 10km以上 11.1 83 1008.8
26 10:53 南東 6 10km以上 10.6 86 1007.4 弱い雨
26 09:53 東南東 6 10km以上 10.6 86 1006.2
26 08:53 6 10km以上 10.6 86 1005.1
26 07:53 6 10km以上 10 89 1004
26 06:53 7 10km以上 10 89 1003.2
26 05:53 4 10km以上 10 89 1002.3
26 04:53 5 10km以上 10 89 1001.6
26 03:53 5 10km以上 10 89 1000.7
26 02:53 4 10km以上 10 87 1000
26 01:53 5 10km以上 10 89 999.5
PAJN 280752Z 13010G16KT 10SM SCT043 BKN065 BKN075 11/08 A2972 RMK A02 RA34 SLP063 P0003 T01110078 $
PAJN 280653Z 16008G15KT 110V200 4SM RA FEW002 BKN055 OVC070 12/08 A2969 RMK A02 SLP052 P0009 T01170083 $
PAJN 280553Z 11011G17KT 4SM RA BR FEW002 BKN038 OVC060 11/09 A2964 RMK A02 PRESRR SLP036 P0015 60092 T01110089 10128 20111 53048 $
PAJN 280453Z 09008KT 3SM RA BR FEW003 OVC037 11/09 A2958 RMK A02 PK WND 12030/0355 SLP015 P0023 T01110094 $
PAJN 280353Z 12021G32KT 4SM -RA FEW003 BKN036 OVC045 12/09 A2953 RMK A02 PK WND 12032/0351 SLP999 P0011 T01170089 $
PAJN 280253Z 13015G22KT 4SM RA BR FEW004 SCT036 OVC045 11/09 A2950 RMK A02 PK WND 12030/0154 SLP988 VIS LWR N P0018 60043 T01110094 53007 $
PAJN 280153Z 13017G22KT 4SM RA BR FEW005 BKN048 OVC060 12/09 A2948 RMK A02 SLP981 VIS LWR E-SE OCNL BINOVC P0011 T01170094 $
PAJN 280053Z 10012G18KT 4SM -RA FEW003 BKN050 OVC075 13/07 A2947 RMK A02 SLP979 P0014 T01280072 $
PAJN 272353Z 10016G31KT 3SM RA BR FEW005 BKN044 OVC060 12/09 A2946 RMK A02 PK WND 11032/2338 SFC VIS 4 RAB2254 SLP977 ONCL BINOVC P0010 60040 T01170094 10122 20083 58001 $
PAJN 272338Z 11022G32KT 3SM RA BR FEW005 BKN044 OVC060 11/09 A2948 RMK A02 PK WND 11032/2338 RAB2254 P0006 T01110094 $
PAJN 272253Z COR 10014G23KT 3SM FEW005 FEW028 BKN050 12/09 A2946 RMK A02 SFC VIS 10 RAE25 SLP974 PRESENT WX VCSH SW P0006 T01170094 $
PAJN 272153Z 12015G21KT 7SM -RA FEW005 SCT033 OVC055 11/09 A2949 RMK A02 PK WND 12030/2124 PRESRR SLP988 VIS HYR N P0002 T01060089 $
PAJN 272053Z 11020KT 7SM -RA FEW007 SCT020 OVC060 11/08 A2947 RMK A02 PK WND 12031/1956 SLP978 THN SPTS INOVC P0011 60022 T01060083 55003 $
PAJN 271953Z 12020G28KT 9SM RA FEW009 BKN040 OVC060 09/07 A2944 RMK A02 PK WND 12030/1911 SLP970 VIS LWR E-SW P0003 T00940072 $
PAJN 271853Z 11020G24KT 9SM -RA FEW009 BKN050 OVC075 09/07 A2945 RMK A02 PK WND 13027/1812 SLP973 P0008 T00890067 $
PAJN 271753Z 12018G32KT 9SM RA FEW012 BKN050 OVC070 09/06 A2948 RMK A02 PK WND 12033/1737 SLP981 P0011 60055 T00890061 10100 20083 56058 $
PAJN 271653Z 13022G29KT 8SM -RA FEW007 BKN040 OVC055 09/06 A2952 RMK A02 PK WND 12029/1653 PRESFR SLP998 VIS LWR S-SW P0007 T00890061 $
PAJN 271553Z 11015KT 8SM -RA FEW009 BKN042 OVC050 08/07 A2959 RMK A02 PRESFR SLP019 VIS LWR S P0010 T00830067 $
PAJN 271453Z COR 11016KT 6SM -RA BR FEW008 BKN025 OVC040 09/07 A2965 RMK A02 PK WND 12030/1407 SLP039 VIS LWR E-SE P0013 60027 T00890072 58046
PAJN 271353Z 10019G29KT 7SM -RA FEW005 OVC025 09/07 A2971 RMK A02 PK WND 12035/1326 SLP062 VIS LWR E-SE P0009 T00940067
PAJN 271253Z COR 12016KT 9SM -RA BKN005 BKN030 10/07 A2976 RMK A02 RAB12 SLP077 VIS LWR E P0005 T01000072
PAJN 271153Z 10013KT 10SM BKN035 BKN100 10/07 A2978 RMK A02 PRESFR SLP085 60002 70009 T01000072 10100 20094 58042
PAJN 271053Z 09013KT 10SM -RA BKN035 OVC050 10/08 A2984 RMK A02 RAE53 SLP104 P0001 T01000078
PAJN 270953Z 11010KT 10SM -RA BKN041 OVC050 10/08 A2989 RMK A02 RAE24B40 SLP120 P0000 T01000078
PAJN 270753Z 08012KT 10SM FEW004 BKN034 OVC060 10/08 A2992 RMK A02 RAE41 SLP132 P0000 T01000078
PAJN 270653Z 09011KT 7SM -RA FEW005 BKN037 OVC060 10/08 A2994 RMK A02 SLP139 P0001 T01000078
PAJN 270553Z 10011KT 5SM -RA BR FEW003 BKN060 OVC075 10/08 A2995 RMK A02 SLP141 PCPN VRY LGT P0000 60006 T01000078 10111 20100 51003
PAJN 270453Z 10011KT 5SM -RA FEW002 SCT039 BKN060 10/08 A2994 RMK A02 RAB13 SLP138 PCPN VRY LGT P0000 T01000078
PAJN 270353Z 11008KT 10SM FEW007 BKN038 OVC055 10/08 A2994 RMK A02 RAE46 SLP140 VIS LWR N AND SE P0000 T01000083
PAJN 270253Z 10009KT 10SM -RA FEW002 BKN037 OVC055 10/08 A2994 RMK A02 SLP137 VIS LWR E-SE PCPN VRY LGT P0002 60006 T01000083 53011
PAJN 270153Z 12011KT 5SM -RA BR FEW005 BKN035 OVC040 11/08 A2993 RMK A02 PRESRR SLP135 VIS HYR SW OCNL BINOVC P0000 T01060083
PAJN 270053Z 13008KT 4SM -RA BR FEW005 BKN034 OVC050 11/08 A2990 RMK A02 SLP126 VIS LWR N P0004 T01060083
PAJN 262353Z 12014G21KT 5SM -RA FEW012 BKN036 OVC055 11/08 A2989 RMK A02 RAB23 SLP121 VIS HYR SW-NW P0001 60001 T01110083 10122 20100 53023
PAJN 262253Z 12018G23KT 10SM FEW012 SCT024 BKN060 BKN150 12/08 A2985 RMK A02 RAB15E24 SLP109 PRESENT WX VCSH E AND W P0000 T01170078
PAJN 262153Z 13015G22KT 10SM SCT016 BKN034 BKN060 BKN150 12/08 A2984 RMK A02 SLP105 T01170083
PAJN 262053Z 12012G21KT 10SM FEW009 SCT020 OVC060 11/08 A2982 RMK A02 SLP098 PRESENT WX VCSH SE-S NMRS BINOVC 60000 T01110083 51036
PAJN 262006Z 12013KT 10SM FEW009 SCT023 OVC060 11/09 A2980 RMK A02 PRESENT WX VCSH SE-S BINOVC T01110089
PAJN 261953Z 12015G19KT 10SM FEW009 BKN025 OVC060 11/08 A2979 RMK A02 RAE52 SLP088 PRESENT WX VCSH E-S P0000 T01110083
PAJN 261853Z 13011KT 9SM -RA FEW009 BKN025 OVC030 11/08 A2975 RMK A02 SLP074 VIS LWR E-S P0000 T01060083
PAJN 261753Z 12012KT 10SM FEW009 BKN025 OVC036 11/08 A2972 RMK A02 RAB09E26B51 SLP062 VIS LWR E-S P0000 60000 T01060083 10106 20100 53030
PAJN 261653Z 10012KT 10SM FEW011 SCT018 BKN035 OVC130 11/08 A2968 RMK A02 SLP051 PRESENT WX VCSH E-S T01060083
PAJN 261553Z 10011KT 10SM FEW007 SCT018 BKN050 BKN130 10/08 A2965 RMK A02 SLP040 T01000083
PAJN 261453Z 09014KT 10SM FEW008 BKN033 OVC070 10/08 A2963 RMK A02 SLP032 BINOVC SE T01000083 52025
PAJN 261353Z 09008KT 10SM SCT038 BKN050 OVC070 10/08 A2960 RMK A02 SLP023 T01000083
PAJN 261253Z 09009KT 10SM FEW029 OVC080 10/08 A2958 RMK A02 SLP016 T01000083
PAJN 261153Z 08010KT 10SM SCT031 OVC080 10/08 A2955 RMK A02 SLP007 T01000083
PAJN 261053Z 08008KT 10SM FEW009 BKN027 OVC75 10/08 A2953
PAJN 260953Z 09010KT 10SM BKN025 OVC049 10/08 A2949 RMK A02 SLP995 T01000083